Terminal Aerodrome Forecast
Issued by NWS

Home | Current Version | Previous Version | Text Only | Print | Product List | Glossary On
Versions: 1 2 3 4 5 6 7 8 9 10 11 12 13 14 15
786
FTUS42 KTBW 230528
TAFRSW
TAF
KRSW 230528Z 2306/2406 01006KT P6SM FEW015
     FM230800 VRB03KT 6SM BR SCT015
     FM231400 06009KT P6SM SCT030 SCT100
     FM232100 08010G17KT P6SM VCSH SCT025 OVC050
     FM240200 07010KT P6SM SCT020=

USA.gov is the U.S. government's official web portal to all federal, state and local government web resources and services.